createdAt,value
2017-10-16T00:03:31.076Z,101297
2017-10-16T00:08:34.260Z,101307
2017-10-16T00:13:37.452Z,101296
2017-10-16T00:18:41.473Z,101299
2017-10-16T00:23:45.537Z,101297
2017-10-16T00:28:48.788Z,101286
2017-10-16T00:33:53.107Z,101295
2017-10-16T00:38:56.316Z,101285
2017-10-16T00:43:59.511Z,101289
2017-10-16T00:49:02.739Z,101277
2017-10-16T00:54:06.218Z,101279
2017-10-16T00:59:09.546Z,101278
2017-10-16T01:04:12.739Z,101282
2017-10-16T01:09:15.910Z,101279
2017-10-16T01:14:19.107Z,101288
2017-10-16T01:19:22.263Z,101273
2017-10-16T01:24:25.489Z,101275
2017-10-16T01:29:28.652Z,101268
2017-10-16T01:34:31.834Z,101267
2017-10-16T01:39:35.025Z,101260
2017-10-16T01:44:38.978Z,101267
2017-10-16T01:49:42.134Z,101246
2017-10-16T01:54:45.329Z,101259
2017-10-16T01:59:50.550Z,101245
2017-10-16T02:04:54.578Z,101251
2017-10-16T02:09:58.078Z,101264
2017-10-16T02:15:01.266Z,101271
2017-10-16T02:20:05.326Z,101270
2017-10-16T02:25:08.782Z,101281
2017-10-16T02:30:11.978Z,101253
2017-10-16T02:35:15.166Z,101273
2017-10-16T02:40:21.307Z,101252
2017-10-16T02:45:24.750Z,101257
2017-10-16T02:50:28.084Z,101267
2017-10-16T02:55:31.267Z,101253
2017-10-16T03:00:34.488Z,101250
2017-10-16T03:05:37.681Z,101266
2017-10-16T03:10:40.891Z,101268
2017-10-16T03:15:44.615Z,101290
2017-10-16T03:20:47.886Z,101295
2017-10-16T03:25:51.146Z,101271
2017-10-16T03:30:54.339Z,101272
2017-10-16T03:35:57.529Z,101272
2017-10-16T03:41:00.709Z,101278
2017-10-16T03:46:03.890Z,101266
2017-10-16T03:51:07.957Z,101268
2017-10-16T03:56:11.203Z,101266
2017-10-16T04:01:14.404Z,101257
2017-10-16T04:06:17.804Z,101270
2017-10-16T04:11:21.205Z,101269
2017-10-16T04:16:24.401Z,101277
2017-10-16T04:21:27.850Z,101278
2017-10-16T04:26:31.138Z,101284
2017-10-16T04:31:34.447Z,101273
2017-10-16T04:36:37.681Z,101266
2017-10-16T04:41:40.890Z,101271
2017-10-16T04:46:44.093Z,101277
2017-10-16T04:51:47.345Z,101274
2017-10-16T04:56:50.695Z,101275
2017-10-16T05:01:53.950Z,101276
2017-10-16T05:06:57.957Z,101264
2017-10-16T05:12:02.074Z,101258
2017-10-16T05:17:05.374Z,101265
2017-10-16T05:22:08.605Z,101275
2017-10-16T05:27:12.569Z,101277
2017-10-16T05:32:15.760Z,101281
2017-10-16T05:37:19.710Z,101284
2017-10-16T05:42:22.893Z,101274
2017-10-16T05:47:26.124Z,101278
2017-10-16T05:52:29.313Z,101287
2017-10-16T05:57:32.485Z,101292
2017-10-16T06:02:36.423Z,101303
2017-10-16T06:07:40.357Z,101307
2017-10-16T06:12:43.573Z,101319
2017-10-16T06:17:46.881Z,101319
2017-10-16T06:22:50.146Z,101326
2017-10-16T06:27:53.326Z,101330
2017-10-16T06:32:56.569Z,101328
2017-10-16T06:38:00.530Z,101339
2017-10-16T06:43:03.827Z,101336
2017-10-16T06:48:07.762Z,101345
2017-10-16T06:53:11.063Z,101337
2017-10-16T06:58:14.261Z,101344
2017-10-16T07:03:17.738Z,101355
2017-10-16T07:08:20.926Z,101346
2017-10-16T07:13:24.113Z,101341
2017-10-16T07:18:27.275Z,101334
2017-10-16T07:23:31.276Z,101330
2017-10-16T07:28:34.491Z,101341
2017-10-16T07:33:37.713Z,101316
2017-10-16T07:38:41.076Z,101304
2017-10-16T07:43:44.425Z,101309
2017-10-16T07:48:47.602Z,101321
2017-10-16T07:53:51.920Z,101317
2017-10-16T07:58:55.300Z,101317
2017-10-16T08:03:58.548Z,101326
2017-10-16T08:09:01.760Z,101338
2017-10-16T08:14:05.045Z,101324
2017-10-16T08:19:08.354Z,101342
2017-10-16T08:24:11.549Z,101329
2017-10-16T08:29:14.734Z,101332
2017-10-16T08:34:18.711Z,101362
2017-10-16T08:39:21.906Z,101356
2017-10-16T08:44:25.099Z,101345
2017-10-16T08:49:28.361Z,101355
2017-10-16T08:54:31.552Z,101346
2017-10-16T08:59:34.774Z,101359
2017-10-16T09:04:37.978Z,101360
2017-10-16T09:09:41.161Z,101368
2017-10-16T09:14:44.519Z,101367
2017-10-16T09:19:48.463Z,101368
2017-10-16T09:24:51.646Z,101373
2017-10-16T09:29:55.910Z,101380
2017-10-16T09:34:59.116Z,101371
2017-10-16T09:40:02.318Z,101357
2017-10-16T09:45:05.502Z,101374
2017-10-16T09:50:08.694Z,101367
2017-10-16T09:55:12.654Z,101345
2017-10-16T10:00:15.825Z,101367
2017-10-16T10:05:19.791Z,101359
2017-10-16T10:10:22.990Z,101355
2017-10-16T10:15:26.177Z,101358
2017-10-16T10:20:29.359Z,101368
2017-10-16T10:25:32.557Z,101358
2017-10-16T10:30:35.800Z,101377
2017-10-16T10:35:39.811Z,101348
2017-10-16T10:40:44.417Z,101356
2017-10-16T10:45:47.646Z,101340
2017-10-16T10:50:51.016Z,101333
2017-10-16T10:55:54.342Z,101335
2017-10-16T11:00:57.553Z,101336
2017-10-16T11:06:00.953Z,101333
2017-10-16T11:11:04.138Z,101320
2017-10-16T11:16:07.334Z,101315
2017-10-16T11:21:10.559Z,101319
2017-10-16T11:26:13.757Z,101324
2017-10-16T11:31:16.966Z,101312
2017-10-16T11:36:20.386Z,101314
2017-10-16T11:41:23.578Z,101314
2017-10-16T11:46:26.785Z,101307
2017-10-16T11:51:29.983Z,101309
2017-10-16T11:56:33.246Z,101297
2017-10-16T12:01:36.475Z,101292
2017-10-16T12:06:40.425Z,101294
2017-10-16T12:11:43.920Z,101294
2017-10-16T12:16:48.181Z,101293
2017-10-16T12:21:51.361Z,101289
2017-10-16T12:26:55.328Z,101284
2017-10-16T12:31:58.527Z,101274
2017-10-16T12:37:01.747Z,101269
2017-10-16T12:42:04.924Z,101259
2017-10-16T12:47:08.179Z,101261
2017-10-16T12:52:11.371Z,101255
2017-10-16T12:57:14.554Z,101256
2017-10-16T13:02:17.793Z,101245
2017-10-16T13:07:22.599Z,101246
2017-10-16T13:12:25.839Z,101252
2017-10-16T13:17:29.026Z,101232
2017-10-16T13:22:32.253Z,101236
2017-10-16T13:27:35.464Z,101224
2017-10-16T13:32:38.640Z,101222
2017-10-16T13:37:41.823Z,101225
2017-10-16T13:42:45.772Z,101220
2017-10-16T13:47:49.031Z,101220
2017-10-16T13:52:52.233Z,101217
2017-10-16T13:57:55.423Z,101210
2017-10-16T14:02:58.630Z,101216
2017-10-16T14:08:01.859Z,101216
2017-10-16T14:13:05.017Z,101207
2017-10-16T14:18:08.200Z,101209
2017-10-16T14:23:12.988Z,101206
2017-10-16T14:28:16.189Z,101202
2017-10-16T14:33:19.410Z,101202
2017-10-16T14:38:22.582Z,101198
2017-10-16T14:43:25.769Z,101202
2017-10-16T14:48:28.953Z,101190
2017-10-16T14:53:32.148Z,101185
2017-10-16T14:58:36.573Z,101182
2017-10-16T15:03:39.749Z,101184
2017-10-16T15:08:43.201Z,101181
2017-10-16T15:13:46.414Z,101176
2017-10-16T15:18:49.672Z,101165
2017-10-16T15:23:53.611Z,101170
2017-10-16T15:28:56.794Z,101166
2017-10-16T15:33:59.970Z,101169
2017-10-16T15:39:03.922Z,101159
2017-10-16T15:44:07.112Z,101164
2017-10-16T15:49:11.065Z,101148
2017-10-16T15:54:14.245Z,101166
2017-10-16T15:59:18.183Z,101168
2017-10-16T16:04:21.373Z,101161
2017-10-16T16:09:25.345Z,101154
2017-10-16T16:14:28.547Z,101157
2017-10-16T16:19:31.723Z,101153
2017-10-16T16:24:34.906Z,101150
2017-10-16T16:29:38.842Z,101138
2017-10-16T16:34:43.305Z,101150
2017-10-16T16:39:48.043Z,101162
2017-10-16T16:44:51.284Z,101154
2017-10-16T16:49:54.497Z,101158
2017-10-16T16:54:57.673Z,101164
2017-10-16T17:00:00.898Z,101163
2017-10-16T17:05:04.113Z,101157
2017-10-16T17:10:07.331Z,101165
2017-10-16T17:15:10.578Z,101162
2017-10-16T17:20:14.617Z,101155
2017-10-16T17:25:17.818Z,101155
2017-10-16T17:30:20.999Z,101157
2017-10-16T17:35:25.002Z,101161
2017-10-16T17:40:28.191Z,101154
2017-10-16T17:45:31.518Z,101152
2017-10-16T17:50:34.871Z,101156
2017-10-16T17:55:38.082Z,101160
2017-10-16T18:00:41.327Z,101168
2017-10-16T18:05:44.548Z,101165
2017-10-16T18:10:47.736Z,101165
2017-10-16T18:15:50.957Z,101164
2017-10-16T18:20:54.146Z,101156
2017-10-16T18:25:57.401Z,101159
2017-10-16T18:31:01.377Z,101153
2017-10-16T18:36:04.680Z,101147
2017-10-16T18:41:07.870Z,101148
2017-10-16T18:46:11.109Z,101147
2017-10-16T18:51:14.313Z,101152
2017-10-16T18:56:17.542Z,101153
2017-10-16T19:01:20.737Z,101153
2017-10-16T19:06:23.926Z,101144
2017-10-16T19:11:27.262Z,101133
2017-10-16T19:16:30.464Z,101134
2017-10-16T19:21:33.646Z,101134
2017-10-16T19:26:36.841Z,101127
2017-10-16T19:31:40.058Z,101127
2017-10-16T19:36:43.310Z,101127
2017-10-16T19:41:46.687Z,101143
2017-10-16T19:46:49.913Z,101129
2017-10-16T19:51:53.089Z,101131
2017-10-16T19:56:56.306Z,101140
2017-10-16T20:01:59.526Z,101147
2017-10-16T20:07:02.751Z,101143
2017-10-16T20:12:05.963Z,101145
2017-10-16T20:17:09.421Z,101145
2017-10-16T20:22:12.653Z,101149
2017-10-16T20:27:15.850Z,101155
2017-10-16T20:32:19.030Z,101150
2017-10-16T20:37:22.213Z,101143
2017-10-16T20:42:26.180Z,101147
2017-10-16T20:47:29.493Z,101151
2017-10-16T20:52:32.720Z,101149
2017-10-16T20:57:36.027Z,101160
2017-10-16T21:02:39.276Z,101163
2017-10-16T21:07:43.264Z,101162
2017-10-16T21:12:46.460Z,101164
2017-10-16T21:17:49.637Z,101167
2017-10-16T21:22:52.848Z,101165
2017-10-16T21:27:56.047Z,101161
2017-10-16T21:32:59.222Z,101158
2017-10-16T21:38:03.218Z,101145
2017-10-16T21:43:06.398Z,101146
2017-10-16T21:48:09.606Z,101149
2017-10-16T21:53:12.867Z,101149
2017-10-16T21:58:18.029Z,101126
2017-10-16T22:03:22.013Z,101136
2017-10-16T22:08:25.437Z,101124
2017-10-16T22:13:28.620Z,101119
2017-10-16T22:18:32.738Z,101119
2017-10-16T22:23:35.906Z,101115
2017-10-16T22:28:39.863Z,101120
2017-10-16T22:33:43.158Z,101128
2017-10-16T22:38:46.348Z,101122
2017-10-16T22:43:49.525Z,101119
2017-10-16T22:48:53.942Z,101121
2017-10-16T23:10:09.792Z,101144
2017-10-16T23:15:13.886Z,101147
2017-10-16T23:20:17.133Z,101150
2017-10-16T23:25:20.335Z,101142
2017-10-16T23:30:23.483Z,101146
2017-10-16T23:35:26.678Z,101143
2017-10-16T23:40:30.696Z,101139
2017-10-16T23:45:34.041Z,101139
2017-10-16T23:50:37.362Z,101146
2017-10-16T23:55:40.589Z,101135
